Time;durP1;ratioP1;P1;durP2;ratioP2;P2;SDS_P1;SDS_P2;PMS_P1;PMS_P2;Temp;Humidity;BMP_temperature;BMP_pressure;BME280_temperature;BME280_humidity;BME280_pressure;Samples;Min_cycle;Max_cycle;Signal;HPM_P1;HPM_P2
2022/08/24 00:02:27;;;;;;;9.30;6.92;;;;;;;21.88;54.18;100822.77;1709273;82;21096;-66
2022/08/24 00:04:53;;;;;;;9.83;6.58;;;;;;;21.91;53.88;100828.27;1706753;82;21604;-65
2022/08/24 00:07:20;;;;;;;9.20;6.67;;;;;;;21.93;53.83;100831.06;1705783;82;21110;-66
2022/08/24 00:09:47;;;;;;;9.78;6.55;;;;;;;21.94;53.46;100830.55;1705357;82;21180;-65
2022/08/24 00:12:14;;;;;;;14.53;6.35;;;;;;;21.97;53.51;100836.87;1704275;82;21533;-66
2022/08/24 00:14:40;;;;;;;12.23;6.60;;;;;;;21.97;53.69;100835.54;1709681;82;21181;-65
2022/08/24 00:17:07;;;;;;;12.10;7.15;;;;;;;21.94;53.30;100834.56;1709182;82;21134;-65
2022/08/24 00:19:33;;;;;;;8.53;6.42;;;;;;;21.96;53.21;100835.23;1707671;83;21151;-65
2022/08/24 00:22:00;;;;;;;9.55;6.30;;;;;;;21.95;53.00;100838.92;1709046;82;21050;-64
2022/08/24 00:24:27;;;;;;;10.25;6.53;;;;;;;21.96;53.12;100845.44;1713615;82;21108;-66
2022/08/24 00:26:53;;;;;;;9.55;6.42;;;;;;;21.94;53.27;100843.45;1702770;82;21140;-65
2022/08/24 00:29:21;;;;;;;12.95;7.17;;;;;;;21.89;53.16;100838.65;1701356;82;21276;-66
2022/08/24 00:31:48;;;;;;;10.65;7.00;;;;;;;21.89;52.92;100849.88;1705966;82;21098;-66
2022/08/24 00:34:16;;;;;;;12.80;6.72;;;;;;;21.89;52.81;100852.05;1706503;82;21069;-66
2022/08/24 00:36:43;;;;;;;10.20;6.22;;;;;;;21.89;52.69;100845.86;1704899;82;21116;-65
2022/08/24 00:39:10;;;;;;;15.38;7.03;;;;;;;21.88;52.63;100852.23;1708680;82;21197;-65
2022/08/24 00:41:43;;;;;;;8.73;6.10;;;;;;;21.84;52.56;100851.77;1706043;82;21139;-66
2022/08/24 00:44:10;;;;;;;11.22;6.22;;;;;;;21.84;52.37;100846.42;1711244;81;21517;-67
2022/08/24 00:46:51;;;;;;;13.83;6.78;;;;;;;21.83;51.97;100845.26;1696516;82;21562;-65
2022/08/24 00:49:41;;;;;;;9.15;6.05;;;;;;;21.83;51.89;100849.27;1690444;83;21168;-66
2022/08/24 00:52:32;;;;;;;10.70;6.75;;;;;;;21.82;51.69;100846.27;1702473;82;21109;-66
2022/08/24 00:55:09;;;;;;;10.63;6.30;;;;;;;21.82;51.63;100847.60;1710592;82;21231;-66
2022/08/24 00:57:39;;;;;;;14.00;6.92;;;;;;;21.78;51.78;100851.69;1697471;82;21040;-66
2022/08/24 01:00:17;;;;;;;10.13;6.20;;;;;;;21.76;51.70;100852.38;1705151;82;21109;-66
2022/08/24 01:02:47;;;;;;;10.15;6.00;;;;;;;21.73;51.70;100846.87;1704779;82;21572;-66
2022/08/24 01:05:15;;;;;;;12.28;6.78;;;;;;;21.70;51.48;100849.43;1697672;83;21077;-66
2022/08/24 01:07:41;;;;;;;10.80;6.50;;;;;;;21.69;51.63;100855.79;1696845;83;21131;-66
2022/08/24 01:10:12;;;;;;;8.53;5.33;;;;;;;21.69;51.44;100853.11;1706707;82;21047;-66
2022/08/24 01:12:42;;;;;;;11.90;5.80;;;;;;;21.67;51.33;100856.48;1695845;82;21421;-66
2022/08/24 01:15:10;;;;;;;10.65;6.65;;;;;;;21.64;51.42;100855.52;1705303;82;21107;-66
2022/08/24 01:22:12;;;;;;;11.60;6.67;;;;;;;21.63;51.47;100855.69;1788490;79;22707;-65
2022/08/24 01:24:41;;;;;;;9.80;6.30;;;;;;;21.64;51.52;100862.20;1740646;80;21326;-66
2022/08/24 01:27:09;;;;;;;9.95;6.75;;;;;;;21.60;51.86;100858.25;1733622;80;22114;-66
2022/08/24 01:29:35;;;;;;;8.95;6.17;;;;;;;21.55;52.03;100860.62;1746206;80;20995;-67
2022/08/24 01:32:02;;;;;;;9.30;5.97;;;;;;;21.49;52.40;100864.05;1726324;82;21616;-67
2022/08/24 01:34:29;;;;;;;10.20;5.40;;;;;;;21.45;52.64;100869.39;1734854;80;21012;-67
2022/08/24 01:36:56;;;;;;;13.08;6.25;;;;;;;21.43;53.16;100866.07;1748617;81;21046;-67
2022/08/24 01:39:28;;;;;;;10.23;6.53;;;;;;;21.39;53.41;100873.64;1733067;80;21375;-66
2022/08/24 01:41:55;;;;;;;16.27;6.62;;;;;;;21.35;53.63;100871.02;1739067;80;20971;-66
2022/08/24 01:44:23;;;;;;;10.48;6.42;;;;;;;21.31;53.77;100871.86;1736337;80;21062;-66
2022/08/24 01:46:52;;;;;;;15.53;6.78;;;;;;;21.28;54.15;100876.27;1748765;80;21090;-66
2022/08/24 01:49:20;;;;;;;12.98;8.13;;;;;;;21.23;53.74;100877.80;1751095;80;21074;-66
2022/08/24 01:51:46;;;;;;;23.57;9.58;;;;;;;21.18;54.83;100878.33;1731317;81;21076;-66
2022/08/24 01:54:13;;;;;;;16.27;7.10;;;;;;;21.20;56.31;100881.69;1743413;80;21070;-66
2022/08/24 01:56:40;;;;;;;12.55;6.62;;;;;;;21.26;56.76;100884.95;1710675;83;21058;-67
2022/08/24 01:59:06;;;;;;;11.45;6.50;;;;;;;21.28;56.48;100882.95;1724032;81;21122;-67
2022/08/24 02:01:38;;;;;;;9.28;6.12;;;;;;;21.28;56.95;100885.63;1722915;83;21026;-66
2022/08/24 02:04:05;;;;;;;12.03;7.33;;;;;;;21.26;56.49;100888.97;1698141;81;21109;-67
2022/08/24 02:06:32;;;;;;;11.28;6.78;;;;;;;21.22;55.61;100897.05;1730510;81;21023;-66
2022/08/24 02:08:59;;;;;;;9.63;6.33;;;;;;;21.17;54.93;100898.61;1736376;81;21124;-66
2022/08/24 02:11:26;;;;;;;8.60;5.72;;;;;;;21.15;54.81;100892.09;1736438;81;21073;-66
2022/08/24 02:13:53;;;;;;;11.65;7.12;;;;;;;21.11;55.18;100905.49;1727236;81;21121;-65
2022/08/24 02:16:20;;;;;;;9.43;6.20;;;;;;;21.04;55.13;100897.86;1718537;81;21225;-66
2022/08/24 02:18:47;;;;;;;10.35;6.30;;;;;;;21.01;55.17;100896.88;1720848;81;21097;-67
2022/08/24 02:21:15;;;;;;;9.65;6.08;;;;;;;20.94;55.12;100891.41;1721443;81;21069;-65
2022/08/24 02:23:42;;;;;;;9.18;6.22;;;;;;;20.92;54.69;100883.56;1722017;82;21071;-68
2022/08/24 02:26:10;;;;;;;11.43;6.20;;;;;;;20.88;54.54;100888.10;1728965;82;21006;-68
2022/08/24 02:28:37;;;;;;;11.48;7.03;;;;;;;20.83;54.70;100889.14;1725081;82;21763;-69
2022/08/24 02:31:05;;;;;;;11.65;6.40;;;;;;;20.78;55.12;100889.19;1725645;82;21066;-67
2022/08/24 02:33:36;;;;;;;9.78;5.53;;;;;;;20.73;55.20;100891.56;1728268;82;21053;-66
2022/08/24 02:36:04;;;;;;;9.40;6.03;;;;;;;20.70;55.25;100898.59;1719300;82;21019;-67
2022/08/24 02:38:31;;;;;;;17.20;7.03;;;;;;;20.69;55.16;100891.57;1733256;82;21544;-68
2022/08/24 02:40:58;;;;;;;9.88;6.10;;;;;;;20.60;54.94;100894.77;1737870;82;21091;-67
2022/08/24 02:43:25;;;;;;;8.93;6.50;;;;;;;20.57;54.22;100892.45;1724300;82;21145;-68
2022/08/24 02:45:51;;;;;;;11.80;6.20;;;;;;;20.58;54.82;100894.13;1717463;82;21110;-68
2022/08/24 02:48:19;;;;;;;8.20;5.78;;;;;;;20.56;54.42;100901.98;1707425;82;21034;-68
2022/08/24 02:50:47;;;;;;;9.35;5.90;;;;;;;20.53;54.34;100901.84;1708092;82;21525;-67
2022/08/24 02:53:15;;;;;;;12.30;5.95;;;;;;;20.52;53.86;100905.51;1715724;83;21218;-68
2022/08/24 02:55:42;;;;;;;12.50;6.30;;;;;;;20.53;53.63;100899.68;1715088;82;21159;-67
2022/08/24 02:58:10;;;;;;;10.25;5.72;;;;;;;20.52;53.18;100898.83;1720000;83;21052;-68
2022/08/24 03:00:38;;;;;;;11.20;5.87;;;;;;;20.52;54.16;100896.16;1714824;82;21666;-67
2022/08/24 03:03:06;;;;;;;8.78;5.60;;;;;;;20.50;54.31;100898.69;1713053;82;21494;-68
2022/08/24 03:05:35;;;;;;;9.68;5.75;;;;;;;20.46;54.64;100898.70;1713169;82;21118;-67
2022/08/24 03:08:02;;;;;;;12.68;5.87;;;;;;;20.46;54.72;100906.71;1714636;82;21056;-67
2022/08/24 03:10:30;;;;;;;11.75;6.12;;;;;;;20.44;54.42;100903.39;1718756;82;21085;-68
2022/08/24 03:12:58;;;;;;;12.43;6.42;;;;;;;20.43;54.25;100903.91;1717641;83;21128;-67
2022/08/24 03:15:25;;;;;;;9.90;5.67;;;;;;;20.40;54.84;100908.25;1713112;82;21125;-67
2022/08/24 03:17:51;;;;;;;9.33;5.47;;;;;;;20.39;54.76;100914.59;1719746;83;21181;-68
2022/08/24 03:20:21;;;;;;;8.68;5.45;;;;;;;20.38;53.01;100915.63;1684732;82;21068;-67
2022/08/24 03:22:48;;;;;;;10.88;5.85;;;;;;;20.39;53.89;100918.61;1741503;80;21102;-68
2022/08/24 03:25:15;;;;;;;11.65;6.00;;;;;;;20.37;54.12;100924.63;1745172;81;21043;-68
2022/08/24 03:27:42;;;;;;;9.03;5.72;;;;;;;20.35;54.17;100925.31;1738324;81;21073;-67
2022/08/24 03:30:11;;;;;;;11.12;6.35;;;;;;;20.33;53.44;100921.99;1744307;81;21134;-67
2022/08/24 03:32:40;;;;;;;7.70;5.45;;;;;;;20.35;53.69;100920.80;1747818;81;21097;-67
2022/08/24 03:35:09;;;;;;;10.80;5.10;;;;;;;20.36;52.49;100917.64;1742882;80;21054;-67
2022/08/24 03:37:36;;;;;;;9.03;6.15;;;;;;;20.38;53.28;100922.30;1745063;80;21049;-68
2022/08/24 03:40:05;;;;;;;10.48;5.15;;;;;;;20.40;52.10;100921.11;1741109;81;21128;-68
2022/08/24 03:42:32;;;;;;;9.03;5.20;;;;;;;20.42;51.25;100926.28;1745233;80;21123;-68
2022/08/24 03:44:59;;;;;;;10.72;5.35;;;;;;;20.47;51.09;100925.77;1743365;81;21018;-68
2022/08/24 03:47:26;;;;;;;10.85;4.90;;;;;;;20.49;51.31;100928.58;1745266;82;21113;-68
2022/08/24 03:49:54;;;;;;;8.55;4.40;;;;;;;20.51;50.91;100927.92;1750213;80;21619;-66
2022/08/24 03:52:21;;;;;;;10.50;5.20;;;;;;;20.55;50.65;100924.39;1745965;80;21048;-68
2022/08/24 03:54:48;;;;;;;8.43;4.90;;;;;;;20.57;50.62;100927.71;1742966;80;21124;-68
2022/08/24 03:57:14;;;;;;;14.78;4.92;;;;;;;20.59;50.30;100930.55;1711477;82;21070;-68
2022/08/24 03:59:40;;;;;;;9.18;5.60;;;;;;;20.61;50.01;100930.38;1717353;82;21075;-68
2022/08/24 04:02:08;;;;;;;8.08;4.80;;;;;;;20.63;49.60;100935.56;1722111;82;21122;-67
2022/08/24 04:04:35;;;;;;;7.83;4.80;;;;;;;20.67;49.44;100929.69;1743062;80;21149;-67
2022/08/24 04:07:03;;;;;;;7.50;4.40;;;;;;;20.67;49.77;100932.88;1733877;80;21811;-68
2022/08/24 04:09:30;;;;;;;10.38;5.10;;;;;;;20.70;50.32;100935.20;1742198;81;20984;-68
2022/08/24 04:11:57;;;;;;;10.40;4.97;;;;;;;20.70;49.91;100929.34;1742486;80;21030;-68
2022/08/24 04:14:25;;;;;;;10.18;4.53;;;;;;;20.73;49.19;100930.34;1739185;80;21076;-68
2022/08/24 04:16:53;;;;;;;7.65;4.53;;;;;;;20.74;49.23;100928.48;1742357;81;21126;-68
2022/08/24 04:19:22;;;;;;;7.85;4.65;;;;;;;20.76;49.34;100928.66;1745124;81;21120;-68
2022/08/24 04:21:48;;;;;;;10.60;4.53;;;;;;;20.79;49.11;100927.45;1737968;81;21095;-68
2022/08/24 04:24:16;;;;;;;9.30;4.65;;;;;;;20.81;48.66;100933.96;1743891;80;21047;-69
2022/08/24 04:26:42;;;;;;;8.83;4.70;;;;;;;20.81;48.56;100936.13;1738181;81;21087;-68
2022/08/24 04:29:09;;;;;;;11.43;4.35;;;;;;;20.82;48.77;100932.45;1732439;80;21161;-68
2022/08/24 04:31:39;;;;;;;7.62;4.60;;;;;;;20.85;48.62;100933.95;1732065;81;21237;-68
2022/08/24 04:34:06;;;;;;;7.30;4.28;;;;;;;20.87;48.54;100925.23;1741861;82;21457;-69
2022/08/24 04:36:34;;;;;;;8.15;4.72;;;;;;;20.87;48.65;100923.39;1738814;81;22877;-68
2022/08/24 04:39:01;;;;;;;7.40;4.37;;;;;;;20.90;48.94;100932.41;1738918;80;21071;-68
2022/08/24 04:41:36;;;;;;;8.53;4.37;;;;;;;20.92;48.99;100930.89;1731923;81;21051;-68
2022/08/24 04:44:03;;;;;;;8.78;4.20;;;;;;;20.93;48.73;100922.69;1739496;81;21125;-67
2022/08/24 04:46:30;;;;;;;8.15;4.20;;;;;;;20.94;48.60;100929.69;1722239;80;21011;-68
2022/08/24 04:48:56;;;;;;;9.10;4.22;;;;;;;20.98;48.50;100924.84;1720069;82;21118;-68
2022/08/24 04:51:23;;;;;;;9.48;3.85;;;;;;;20.99;48.44;100923.81;1729121;81;21032;-68
2022/08/24 04:53:50;;;;;;;7.80;4.17;;;;;;;21.03;47.96;100933.16;1678205;85;21129;-68
2022/08/24 04:56:21;;;;;;;6.67;3.95;;;;;;;21.05;47.98;100937.00;1731842;80;21053;-68
2022/08/24 04:58:49;;;;;;;8.13;4.35;;;;;;;21.08;48.20;100934.80;1691379;83;21141;-68
2022/08/24 05:01:20;;;;;;;8.78;4.15;;;;;;;21.10;48.04;100927.41;1702388;83;21010;-68
2022/08/24 05:03:49;;;;;;;5.83;3.85;;;;;;;21.09;48.02;100931.09;1699263;83;21062;-68
2022/08/24 05:06:19;;;;;;;7.83;4.37;;;;;;;21.10;47.96;100927.93;1730579;81;21067;-67
2022/08/24 05:08:46;;;;;;;8.03;4.17;;;;;;;21.13;47.97;100926.20;1741508;81;21244;-67
2022/08/24 05:11:16;;;;;;;7.62;3.95;;;;;;;21.15;47.74;100927.70;1733787;80;21902;-67
2022/08/24 05:13:44;;;;;;;6.85;4.08;;;;;;;21.20;47.98;100931.67;1698156;82;21050;-67
2022/08/24 05:16:13;;;;;;;16.27;4.33;;;;;;;21.23;48.08;100932.17;1697260;82;21035;-67
2022/08/24 05:18:40;;;;;;;9.60;4.28;;;;;;;21.27;48.28;100934.80;1699078;82;21054;-67
2022/08/24 05:21:08;;;;;;;6.15;3.95;;;;;;;21.30;48.33;100923.75;1698115;82;21204;-66
2022/08/24 05:23:36;;;;;;;8.78;4.12;;;;;;;21.34;48.25;100927.71;1697346;84;21569;-68
2022/08/24 05:26:10;;;;;;;7.62;4.00;;;;;;;21.39;48.17;100919.66;1733638;81;21553;-68
2022/08/24 05:28:38;;;;;;;10.38;3.70;;;;;;;21.43;48.08;100921.77;1736733;81;21098;-67
2022/08/24 05:31:09;;;;;;;8.98;4.00;;;;;;;21.47;48.25;100920.97;1733932;80;21028;-67
2022/08/24 05:33:37;;;;;;;8.85;4.22;;;;;;;21.50;47.54;100917.41;1735216;82;21920;-67
2022/08/24 05:36:04;;;;;;;12.70;4.72;;;;;;;21.56;47.68;100918.52;1697619;82;21049;-67
2022/08/24 05:38:32;;;;;;;8.15;4.40;;;;;;;21.61;47.56;100912.11;1718331;82;20988;-66
2022/08/24 05:41:04;;;;;;;10.10;4.37;;;;;;;21.68;47.51;100918.91;1737231;81;22281;-67
2022/08/24 05:43:32;;;;;;;10.65;4.70;;;;;;;21.74;47.74;100916.84;1730857;80;21554;-67
2022/08/24 05:45:58;;;;;;;7.72;4.25;;;;;;;21.82;47.83;100914.57;1689292;82;21246;-67
2022/08/24 05:48:25;;;;;;;7.97;3.85;;;;;;;21.86;47.05;100914.03;1692865;82;21071;-67
2022/08/24 05:51:08;;;;;;;7.70;3.85;;;;;;;21.93;47.39;100915.46;1698978;82;21065;-67
2022/08/24 05:53:37;;;;;;;9.48;4.30;;;;;;;22.01;47.16;100916.71;1714113;82;21051;-67
2022/08/24 05:56:08;;;;;;;9.90;4.40;;;;;;;22.10;47.27;100913.42;1729854;80;21011;-65
2022/08/24 05:58:36;;;;;;;9.63;5.22;;;;;;;22.18;47.03;100920.55;1763745;80;21188;-67
2022/08/24 06:01:13;;;;;;;8.60;4.55;;;;;;;22.26;46.72;100919.11;1729314;80;21055;-67
2022/08/24 06:03:40;;;;;;;6.90;3.90;;;;;;;22.34;46.52;100923.06;1682006;84;21056;-66
2022/08/24 06:06:07;;;;;;;8.35;4.30;;;;;;;22.41;45.90;100927.98;1687624;82;21038;-67
2022/08/24 06:08:39;;;;;;;9.70;4.72;;;;;;;22.51;45.84;100934.89;1691543;82;21102;-66
2022/08/24 06:11:06;;;;;;;8.85;4.08;;;;;;;22.57;45.37;100937.65;1725459;81;21914;-66
2022/08/24 06:13:33;;;;;;;7.67;4.47;;;;;;;22.65;45.52;100939.40;1728165;80;21534;-66
2022/08/24 06:16:11;;;;;;;8.83;4.60;;;;;;;22.74;45.90;100937.43;1734825;80;21546;-67
2022/08/24 06:18:38;;;;;;;9.88;4.42;;;;;;;22.80;44.93;100934.82;1684751;84;21463;-67
2022/08/24 06:21:10;;;;;;;8.20;4.70;;;;;;;22.89;45.13;100945.44;1703058;82;21082;-66
2022/08/24 06:23:38;;;;;;;6.08;3.60;;;;;;;22.96;44.36;100947.18;1704417;82;21097;-66
2022/08/24 06:28:51;;;;;;;9.00;5.10;;;;;;;23.11;44.14;100952.50;1716783;80;21012;-65
2022/08/24 06:31:17;;;;;;;8.53;5.05;;;;;;;23.18;44.15;100952.56;1735613;81;21518;-66
2022/08/24 06:33:46;;;;;;;8.63;4.97;;;;;;;23.26;44.66;100955.64;1741983;81;21094;-66
2022/08/24 06:36:13;;;;;;;8.55;4.15;;;;;;;23.32;43.72;100961.06;1740914;80;21131;-66
2022/08/24 06:38:40;;;;;;;7.62;4.50;;;;;;;23.39;43.61;100958.44;1742423;82;20988;-66
2022/08/24 06:41:08;;;;;;;7.42;4.55;;;;;;;23.46;44.12;100962.52;1731830;80;21047;-65
2022/08/24 06:43:36;;;;;;;9.40;4.85;;;;;;;23.51;44.29;100959.56;1730925;81;21190;-65
2022/08/24 06:46:06;;;;;;;7.10;4.80;;;;;;;23.60;44.08;100966.14;1701072;82;21529;-65
2022/08/24 06:48:35;;;;;;;15.60;5.95;;;;;;;23.65;43.76;100963.70;1731337;80;21110;-65
2022/08/24 06:51:10;;;;;;;12.63;5.72;;;;;;;23.75;44.15;100972.25;1736225;81;21049;-64
2022/08/24 06:53:38;;;;;;;10.90;4.58;;;;;;;23.81;43.70;100967.97;1742637;81;21051;-64
2022/08/24 06:56:06;;;;;;;8.48;4.60;;;;;;;23.87;43.12;100973.91;1703876;82;21117;-65
2022/08/24 06:58:33;;;;;;;12.33;5.28;;;;;;;23.90;43.57;100967.62;1697472;83;21118;-66
2022/08/24 07:01:10;;;;;;;9.40;5.08;;;;;;;23.96;43.61;100962.00;1693010;82;21137;-65
2022/08/24 07:03:37;;;;;;;8.60;4.50;;;;;;;24.03;42.99;100962.04;1737531;80;21496;-65
2022/08/24 07:06:06;;;;;;;7.78;4.97;;;;;;;24.11;43.72;100962.70;1738733;81;21036;-65
2022/08/24 07:08:35;;;;;;;8.90;4.85;;;;;;;24.19;43.58;100959.04;1741482;80;21059;-64
2022/08/24 07:11:03;;;;;;;9.88;4.45;;;;;;;24.27;43.25;100962.87;1733800;81;21159;-64
2022/08/24 07:13:30;;;;;;;8.75;4.58;;;;;;;24.35;42.85;100956.52;1734547;80;21101;-65
2022/08/24 07:15:57;;;;;;;11.03;4.95;;;;;;;24.42;42.66;100964.09;1699446;82;21050;-65
2022/08/24 07:18:24;;;;;;;11.33;4.83;;;;;;;24.49;42.64;100961.43;1698681;82;21019;-65
2022/08/24 07:20:51;;;;;;;7.60;4.40;;;;;;;24.55;42.40;100974.12;1690421;82;21101;-64
2022/08/24 07:23:19;;;;;;;17.40;4.70;;;;;;;24.63;42.58;100971.26;1748972;80;21569;-65
2022/08/24 07:25:46;;;;;;;12.33;5.17;;;;;;;24.73;43.04;100977.61;1740713;81;21061;-65
2022/08/24 07:28:13;;;;;;;8.38;3.98;;;;;;;24.82;42.85;100970.17;1738919;81;21050;-64
2022/08/24 07:30:40;;;;;;;11.28;5.03;;;;;;;24.89;42.15;100971.02;1715325;82;21069;-65
2022/08/24 07:33:07;;;;;;;8.55;5.00;;;;;;;24.92;42.14;100966.58;1712551;83;21034;-65
2022/08/24 07:35:36;;;;;;;12.55;5.10;;;;;;;24.98;41.79;100963.08;1716814;82;21007;-65
2022/08/24 07:38:04;;;;;;;14.43;5.03;;;;;;;25.01;41.23;100961.30;1706318;82;21953;-65
2022/08/24 07:40:32;;;;;;;15.95;6.30;;;;;;;25.06;41.64;100960.70;1721660;82;21110;-65
2022/08/24 07:42:58;;;;;;;16.48;5.92;;;;;;;25.12;42.00;100961.76;1715421;83;21525;-65
2022/08/24 07:45:25;;;;;;;14.80;5.12;;;;;;;25.19;41.35;100957.20;1691083;83;21594;-65
2022/08/24 07:47:52;;;;;;;9.05;4.47;;;;;;;25.27;40.98;100961.08;1684643;83;22317;-65
2022/08/24 07:50:39;;;;;;;10.45;4.83;;;;;;;25.33;41.45;100963.45;1695892;82;21821;-64
2022/08/24 07:53:05;;;;;;;11.55;5.22;;;;;;;25.37;40.47;100960.14;1682120;83;21086;-67
2022/08/24 07:55:32;;;;;;;10.08;5.17;;;;;;;25.42;40.45;100964.92;1688501;83;21044;-66
2022/08/24 07:58:00;;;;;;;11.97;4.58;;;;;;;25.48;40.93;100967.30;1692618;83;21071;-66
2022/08/24 08:00:27;;;;;;;9.65;5.08;;;;;;;25.56;41.36;100966.56;1707457;83;21090;-67
2022/08/24 08:02:56;;;;;;;12.93;5.33;;;;;;;25.62;41.18;100963.58;1711075;83;21143;-65
2022/08/24 08:05:23;;;;;;;15.63;6.50;;;;;;;25.68;40.30;100974.84;1699557;82;21111;-67
2022/08/24 08:07:51;;;;;;;16.37;5.72;;;;;;;25.74;41.12;100972.67;1700260;82;21153;-67
2022/08/24 08:10:17;;;;;;;16.85;5.62;;;;;;;25.81;40.15;100971.84;1705409;82;21115;-66
2022/08/24 08:12:47;;;;;;;13.95;6.08;;;;;;;25.88;39.75;100967.27;1696232;83;21094;-66
2022/08/24 08:15:13;;;;;;;24.57;5.92;;;;;;;25.93;39.43;100970.98;1699752;83;21802;-67
2022/08/24 08:17:41;;;;;;;17.25;5.53;;;;;;;26.00;39.55;100976.92;1706650;82;21058;-67
2022/08/24 08:20:10;;;;;;;20.02;5.47;;;;;;;26.05;39.32;100973.89;1704767;83;21146;-67
2022/08/24 08:25:38;;;;;;;16.67;6.22;;;;;;;26.20;40.02;100968.78;1687847;84;21051;-67
2022/08/24 08:28:06;;;;;;;17.37;6.60;;;;;;;26.29;38.94;100971.04;1694412;83;21265;-68
2022/08/24 08:30:33;;;;;;;15.90;5.12;;;;;;;26.38;38.87;100968.92;1692208;84;21750;-67
2022/08/24 08:33:00;;;;;;;13.53;5.42;;;;;;;26.46;38.25;100965.99;1698014;83;20996;-67
2022/08/24 08:35:26;;;;;;;12.58;5.62;;;;;;;26.55;38.77;100958.47;1699018;84;21122;-67
2022/08/24 08:37:56;;;;;;;15.83;5.35;;;;;;;26.63;38.29;100960.11;1691653;83;21027;-66
2022/08/24 08:40:54;;;;;;;15.05;5.85;;;;;;;26.71;38.54;100965.27;1699272;84;21100;-67
2022/08/24 08:43:42;;;;;;;17.95;6.30;;;;;;;26.77;38.76;100963.59;1684851;83;21062;-67
2022/08/24 08:46:57;;;;;;;12.20;5.17;;;;;;;26.84;38.94;100963.84;1691687;83;21166;-68
2022/08/24 08:49:43;;;;;;;12.50;5.33;;;;;;;26.95;39.03;100962.84;1701913;83;21494;-67
2022/08/24 08:52:32;;;;;;;13.13;5.45;;;;;;;27.03;38.26;100966.14;1704026;83;21561;-68
2022/08/24 08:55:06;;;;;;;14.70;6.00;;;;;;;27.08;38.14;100963.29;1671508;83;21159;-67
2022/08/24 08:58:17;;;;;;;11.15;5.40;;;;;;;27.13;38.16;100962.11;1696479;83;21190;-67
2022/08/24 09:01:04;;;;;;;12.10;4.90;;;;;;;27.20;38.44;100958.83;1625417;87;21129;-67
2022/08/24 09:03:52;;;;;;;11.68;5.17;;;;;;;27.34;38.19;100950.16;1623598;86;21099;-68
2022/08/24 09:07:09;;;;;;;16.48;4.70;;;;;;;27.46;37.98;100955.14;1681301;83;21498;-67
2022/08/24 09:09:52;;;;;;;13.05;4.20;;;;;;;27.58;37.42;100953.35;1694474;83;21219;-67
2022/08/24 09:12:57;;;;;;;9.63;4.58;;;;;;;27.70;36.96;100947.23;1691934;83;21063;-67
2022/08/24 09:15:57;;;;;;;10.85;4.40;;;;;;;27.79;37.17;100945.91;1700963;83;21114;-67
2022/08/24 09:18:44;;;;;;;14.83;4.70;;;;;;;27.89;37.63;100948.91;1697081;83;21518;-65
2022/08/24 09:21:17;;;;;;;13.62;4.40;;;;;;;28.01;37.20;100941.41;1693013;83;21060;-66
2022/08/24 09:24:17;;;;;;;9.78;4.33;;;;;;;28.11;36.54;100941.72;1695294;83;21145;-67
2022/08/24 09:27:00;;;;;;;11.33;4.58;;;;;;;28.22;37.17;100940.97;1696105;83;21538;-68
2022/08/24 09:30:03;;;;;;;10.43;4.22;;;;;;;28.34;35.32;100943.73;1693936;83;21070;-67
2022/08/24 09:32:53;;;;;;;12.10;3.83;;;;;;;28.43;35.39;100938.33;1699726;83;21068;-67
2022/08/24 09:35:32;;;;;;;13.45;4.65;;;;;;;28.55;35.82;100941.09;1707842;83;21117;-67
2022/08/24 09:38:18;;;;;;;13.72;4.70;;;;;;;28.65;35.94;100942.74;1692965;82;21246;-67
2022/08/24 09:41:39;;;;;;;12.55;5.33;;;;;;;28.72;35.14;100944.82;1700544;83;21020;-66
2022/08/24 09:44:45;;;;;;;11.78;4.45;;;;;;;28.81;35.89;100942.61;1688256;82;21073;-67
2022/08/24 09:47:23;;;;;;;13.30;4.60;;;;;;;28.87;35.61;100943.05;1705500;83;21006;-66
2022/08/24 09:50:12;;;;;;;11.43;4.33;;;;;;;28.93;36.36;100943.18;1648028;83;21068;-66
2022/08/24 09:53:11;;;;;;;7.92;3.47;;;;;;;28.97;36.19;100943.03;1701076;83;21133;-66
2022/08/24 09:56:10;;;;;;;8.95;4.00;;;;;;;29.03;36.42;100947.50;1704369;82;21478;-66
2022/08/24 09:58:42;;;;;;;10.32;4.45;;;;;;;29.11;36.37;100941.75;1705952;82;20991;-67
2022/08/24 10:01:23;;;;;;;8.40;3.62;;;;;;;29.22;36.15;100941.52;1703468;83;21148;-67
2022/08/24 10:04:07;;;;;;;14.00;4.05;;;;;;;29.30;36.08;100938.45;1704719;82;21071;-67
2022/08/24 10:07:05;;;;;;;10.72;4.35;;;;;;;29.39;35.37;100930.28;1692061;83;21245;-66
2022/08/24 10:09:54;;;;;;;12.03;4.22;;;;;;;29.44;34.91;100931.75;1680971;83;21055;-66
2022/08/24 10:12:58;;;;;;;13.40;4.62;;;;;;;29.53;35.90;100934.93;1734606;81;21047;-66
2022/08/24 10:15:31;;;;;;;13.80;4.47;;;;;;;29.62;36.25;100932.69;1734803;80;21024;-67
2022/08/24 10:18:22;;;;;;;15.53;4.90;;;;;;;29.73;35.94;100929.15;1736215;81;21061;-66
2022/08/24 10:21:04;;;;;;;8.20;4.37;;;;;;;29.81;34.57;100928.82;1696715;82;21157;-67
2022/08/24 10:23:51;;;;;;;11.00;3.52;;;;;;;29.92;35.02;100929.04;1699144;82;21065;-66
2022/08/24 10:26:32;;;;;;;16.73;3.90;;;;;;;30.03;34.80;100926.84;1748688;81;21572;-66
2022/08/24 10:29:27;;;;;;;12.00;3.80;;;;;;;30.13;34.07;100922.98;1714715;81;21104;-67
2022/08/24 10:32:37;;;;;;;9.85;4.17;;;;;;;30.25;33.29;100931.63;1745056;80;21090;-66
2022/08/24 10:35:25;;;;;;;10.48;3.10;;;;;;;30.39;33.01;100931.66;1749028;81;21232;-66
2022/08/24 10:42:02;;;;;;;8.30;3.27;;;;;;;30.62;31.47;100925.31;1711178;83;21125;-66
2022/08/24 10:44:48;;;;;;;10.90;3.92;;;;;;;30.73;31.39;100926.31;1694400;83;21490;-64
2022/08/24 10:47:29;;;;;;;11.30;3.52;;;;;;;30.80;31.80;100920.72;1700741;82;21113;-66
2022/08/24 10:50:40;;;;;;;14.60;3.87;;;;;;;30.89;31.53;100924.16;1716138;82;21780;-65
2022/08/24 10:53:26;;;;;;;9.03;3.50;;;;;;;30.98;31.47;100917.00;1700811;82;21007;-64
2022/08/24 10:56:10;;;;;;;9.88;3.42;;;;;;;31.06;31.16;100913.33;1730993;81;21074;-66
2022/08/24 10:58:48;;;;;;;9.80;3.33;;;;;;;31.14;31.00;100915.37;1734751;81;21067;-64
2022/08/24 11:01:31;;;;;;;9.20;3.77;;;;;;;31.22;30.71;100913.05;1734399;80;21094;-65
2022/08/24 11:04:08;;;;;;;12.03;3.40;;;;;;;31.31;30.48;100913.45;1739024;81;21115;-64
2022/08/24 11:06:43;;;;;;;12.13;3.40;;;;;;;31.39;30.88;100913.55;1747539;81;21117;-64
2022/08/24 11:09:16;;;;;;;9.28;3.45;;;;;;;31.46;30.68;100908.24;1746147;81;22130;-63
2022/08/24 11:11:45;;;;;;;11.48;3.33;;;;;;;31.55;30.32;100896.42;1706735;83;21188;-66
2022/08/24 11:14:28;;;;;;;8.68;3.12;;;;;;;31.61;30.52;100906.31;1744414;81;21044;-65
2022/08/24 11:17:18;;;;;;;15.03;3.55;;;;;;;31.69;30.52;100902.35;1743847;80;21143;-66
2022/08/24 11:19:45;;;;;;;14.18;3.52;;;;;;;31.77;30.52;100897.00;1745477;81;21496;-65
2022/08/24 11:22:33;;;;;;;7.97;2.90;;;;;;;31.82;30.29;100891.07;1745958;81;21062;-65
2022/08/24 11:25:05;;;;;;;8.35;2.98;;;;;;;31.89;29.35;100897.69;1748178;81;21070;-61
2022/08/24 11:27:38;;;;;;;9.85;3.02;;;;;;;31.97;29.86;100890.99;1753561;81;21090;-63
2022/08/24 11:30:10;;;;;;;6.33;2.47;;;;;;;32.07;29.56;100887.06;1747730;80;21880;-64
2022/08/24 11:32:46;;;;;;;7.30;2.87;;;;;;;32.15;29.85;100892.61;1747233;81;21092;-65
2022/08/24 11:35:33;;;;;;;7.12;3.20;;;;;;;32.24;29.96;100885.61;1724538;81;21101;-66
2022/08/24 11:38:22;;;;;;;8.85;3.17;;;;;;;32.35;30.46;100884.66;1754743;81;21118;-65
2022/08/24 11:41:06;;;;;;;12.55;2.77;;;;;;;32.45;28.71;100873.56;1743693;81;21036;-64
2022/08/24 11:44:03;;;;;;;5.63;2.50;;;;;;;32.54;28.22;100872.04;1749690;81;21103;-63
2022/08/24 11:46:50;;;;;;;7.92;2.80;;;;;;;32.54;28.22;100872.04;1716366;82;21050;-63
2022/08/24 11:49:21;;;;;;;8.03;2.72;;;;;;;32.61;28.98;100872.67;1669252;83;21171;-66
2022/08/24 11:52:08;;;;;;;7.35;3.37;;;;;;;32.70;29.63;100873.86;1710654;82;21117;-66
2022/08/24 11:55:00;;;;;;;9.80;3.35;;;;;;;32.80;28.93;100870.41;1710235;82;21464;-65
2022/08/24 11:58:14;;;;;;;10.72;2.92;;;;;;;32.90;28.29;100877.81;1690035;84;21291;-66
2022/08/24 12:00:55;;;;;;;7.42;2.70;;;;;;;33.00;28.54;100875.17;1698222;84;21018;-67
2022/08/24 12:03:55;;;;;;;9.30;2.95;;;;;;;33.10;28.75;100872.55;1692737;84;21027;-66
2022/08/24 12:06:40;;;;;;;4.97;2.60;;;;;;;33.17;28.70;100873.72;1688187;84;21519;-65